Time;durP1;ratioP1;P1;durP2;ratioP2;P2;SDS_P1;SDS_P2;PMS_P1;PMS_P2;Temp;Humidity;BMP_temperature;BMP_pressure;BME280_temperature;BME280_humidity;BME280_pressure;Samples;Min_cycle;Max_cycle;Signal;HPM_P1;HPM_P2
2023/04/20 00:00:28;;;;;;;14.93;13.80;;;7.80;64.70;;;;;;5015977;28;20263;-89
2023/04/20 00:02:54;;;;;;;15.77;14.30;;;7.80;64.90;;;;;;5033744;28;20176;-88
2023/04/20 00:05:20;;;;;;;15.53;14.13;;;7.80;65.30;;;;;;5033576;28;20204;-88
2023/04/20 00:07:47;;;;;;;15.00;13.40;;;7.80;65.80;;;;;;5016107;28;20197;-88
2023/04/20 00:10:12;;;;;;;14.83;13.70;;;7.80;67.20;;;;;;5015836;28;20188;-88
2023/04/20 00:12:38;;;;;;;13.10;12.20;;;7.80;68.40;;;;;;5015867;28;20176;-88
2023/04/20 00:15:04;;;;;;;13.17;12.27;;;7.70;68.30;;;;;;5033288;28;20651;-88
2023/04/20 00:17:30;;;;;;;14.40;13.40;;;7.70;66.20;;;;;;5033468;28;20210;-88
2023/04/20 00:19:56;;;;;;;14.10;13.10;;;7.80;66.40;;;;;;5033397;28;20208;-88
2023/04/20 00:22:21;;;;;;;14.13;13.03;;;7.80;65.60;;;;;;5033285;28;20657;-88
2023/04/20 00:24:47;;;;;;;14.33;13.13;;;7.70;67.00;;;;;;5033193;28;20284;-88
2023/04/20 00:27:13;;;;;;;14.17;12.80;;;7.60;66.50;;;;;;5015793;28;20278;-88
2023/04/20 00:29:39;;;;;;;13.83;12.83;;;7.70;66.90;;;;;;5015617;28;20699;-88
2023/04/20 00:32:05;;;;;;;13.57;12.33;;;7.60;67.70;;;;;;5033241;28;20196;-88
2023/04/20 00:34:31;;;;;;;13.60;12.60;;;7.80;62.70;;;;;;5033109;28;20177;-87
2023/04/20 00:36:56;;;;;;;14.10;12.80;;;7.80;63.80;;;;;;5033284;28;20220;-87
2023/04/20 00:39:22;;;;;;;14.13;13.13;;;7.80;63.20;;;;;;5015454;28;20544;-88
2023/04/20 00:41:47;;;;;;;12.77;11.77;;;7.80;62.80;;;;;;5015427;28;20181;-87
2023/04/20 00:44:13;;;;;;;12.77;11.77;;;7.70;63.30;;;;;;5015273;28;20200;-87
2023/04/20 00:46:39;;;;;;;12.13;11.43;;;7.90;59.00;;;;;;5033540;28;20201;-87
2023/04/20 00:49:06;;;;;;;10.87;10.17;;;8.00;59.60;;;;;;5033269;28;20173;-88
2023/04/20 00:51:33;;;;;;;11.77;10.90;;;8.30;54.40;;;;;;5015331;28;20643;-87
2023/04/20 00:53:59;;;;;;;11.43;10.83;;;8.40;54.40;;;;;;5015342;28;20177;-87
2023/04/20 00:56:25;;;;;;;11.67;10.97;;;8.30;53.70;;;;;;5032932;28;20196;-87
2023/04/20 00:58:50;;;;;;;22.53;21.03;;;8.50;53.90;;;;;;5015311;28;20180;-87
2023/04/20 01:01:16;;;;;;;22.90;21.53;;;8.50;52.30;;;;;;5015227;28;20188;-88
2023/04/20 01:03:42;;;;;;;22.37;21.07;;;8.60;52.50;;;;;;5015531;28;20243;-88
2023/04/20 01:06:08;;;;;;;21.90;20.50;;;8.50;53.00;;;;;;5015158;28;20201;-87
2023/04/20 01:08:33;;;;;;;22.20;20.57;;;8.60;52.10;;;;;;5015334;28;20272;-88
2023/04/20 01:10:59;;;;;;;23.27;21.87;;;8.50;53.10;;;;;;5015143;28;20268;-87
2023/04/20 01:13:24;;;;;;;23.23;21.83;;;8.40;54.50;;;;;;5015472;28;20300;-88
2023/04/20 01:15:50;;;;;;;12.00;11.20;;;8.40;53.60;;;;;;5032973;28;20196;-87
2023/04/20 01:18:18;;;;;;;11.90;11.10;;;8.30;53.80;;;;;;5015147;28;20181;-88
2023/04/20 01:20:45;;;;;;;22.80;21.10;;;8.30;54.70;;;;;;5033001;28;20169;-88
2023/04/20 01:23:11;;;;;;;22.10;20.73;;;8.20;55.20;;;;;;5015152;28;20215;-88
2023/04/20 01:25:36;;;;;;;23.10;21.47;;;8.20;55.40;;;;;;5014890;28;20239;-87
2023/04/20 01:28:03;;;;;;;24.47;21.97;;;8.20;55.80;;;;;;5017693;28;20180;-88
2023/04/20 01:30:29;;;;;;;11.80;11.10;;;8.10;56.50;;;;;;5018669;28;20694;-88
2023/04/20 01:32:55;;;;;;;11.93;11.10;;;8.10;56.80;;;;;;5018550;28;20677;-88
2023/04/20 01:35:20;;;;;;;12.33;11.43;;;8.20;56.80;;;;;;5018442;28;20176;-88
2023/04/20 01:37:46;;;;;;;12.50;11.70;;;8.10;57.20;;;;;;5019050;28;20228;-88
2023/04/20 01:40:13;;;;;;;12.53;11.73;;;8.00;59.30;;;;;;5018486;28;20180;-87
2023/04/20 01:42:39;;;;;;;13.70;12.53;;;7.90;62.10;;;;;;5018468;28;20276;-87
2023/04/20 01:45:06;;;;;;;12.90;11.73;;;7.70;64.30;;;;;;5019067;28;20208;-88
2023/04/20 01:47:32;;;;;;;12.53;11.63;;;7.70;61.50;;;;;;5035965;28;20189;-87
2023/04/20 01:49:58;;;;;;;11.90;11.10;;;7.70;61.60;;;;;;5036082;28;20177;-87
2023/04/20 01:52:23;;;;;;;13.37;12.30;;;7.60;60.90;;;;;;5018237;28;20187;-88
2023/04/20 01:54:49;;;;;;;12.57;11.77;;;7.60;62.60;;;;;;5019184;28;20528;-87
2023/04/20 01:57:14;;;;;;;12.83;11.80;;;7.50;61.90;;;;;;5035811;28;20196;-88
2023/04/20 01:59:40;;;;;;;12.00;11.07;;;7.60;61.40;;;;;;5018092;28;20181;-88
2023/04/20 02:02:06;;;;;;;11.50;10.80;;;7.60;61.90;;;;;;5019292;28;20185;-88
2023/04/20 02:04:31;;;;;;;13.53;12.60;;;7.70;60.70;;;;;;5017930;28;20208;-88
2023/04/20 02:06:57;;;;;;;13.17;12.17;;;7.60;62.60;;;;;;5018259;28;20224;-87
2023/04/20 02:09:22;;;;;;;12.77;11.83;;;7.70;62.20;;;;;;5018159;28;20172;-88
2023/04/20 02:11:48;;;;;;;14.60;13.20;;;7.60;63.00;;;;;;5018055;28;20177;-88
2023/04/20 02:14:13;;;;;;;13.10;12.30;;;7.60;65.10;;;;;;5017928;28;20267;-87
2023/04/20 02:16:40;;;;;;;13.83;12.77;;;7.50;65.80;;;;;;5017772;28;20573;-87
2023/04/20 02:19:05;;;;;;;12.77;12.00;;;7.50;65.20;;;;;;5017687;28;20191;-87
2023/04/20 02:21:31;;;;;;;17.97;11.77;;;7.40;66.20;;;;;;5035675;28;20255;-88
2023/04/20 02:23:57;;;;;;;11.87;11.17;;;7.30;66.60;;;;;;5017618;28;20678;-88
2023/04/20 02:26:22;;;;;;;12.70;11.80;;;7.30;68.80;;;;;;5017619;28;20189;-88
2023/04/20 02:28:48;;;;;;;14.60;13.23;;;7.10;69.50;;;;;;5017623;28;20199;-88
2023/04/20 02:31:13;;;;;;;12.77;11.70;;;7.00;71.00;;;;;;5017503;28;20172;-87
2023/04/20 02:33:39;;;;;;;9.67;9.00;;;6.80;72.70;;;;;;5017530;28;20271;-88
2023/04/20 02:36:05;;;;;;;12.87;10.70;;;6.70;74.00;;;;;;5017630;28;20632;-88
2023/04/20 02:38:31;;;;;;;11.53;9.27;;;6.70;73.70;;;;;;5017371;28;20168;-88
2023/04/20 02:40:56;;;;;;;9.60;8.83;;;6.70;74.50;;;;;;5017653;28;20189;-88
2023/04/20 02:43:22;;;;;;;10.73;9.83;;;6.70;73.30;;;;;;5034934;28;20555;-88
2023/04/20 02:45:47;;;;;;;11.53;10.33;;;6.70;73.30;;;;;;5017367;28;20234;-88
2023/04/20 02:48:13;;;;;;;10.87;9.87;;;6.60;74.10;;;;;;5034995;28;20252;-88
2023/04/20 02:50:40;;;;;;;11.40;10.40;;;6.60;74.00;;;;;;5034920;28;20238;-88
2023/04/20 02:53:05;;;;;;;21.13;19.63;;;6.60;73.50;;;;;;5017544;28;20177;-88
2023/04/20 02:55:31;;;;;;;21.87;20.00;;;6.70;73.70;;;;;;5034972;28;20543;-88
2023/04/20 02:57:56;;;;;;;19.43;18.00;;;6.60;74.20;;;;;;5017035;28;20565;-88
2023/04/20 03:00:23;;;;;;;19.77;18.27;;;6.60;74.50;;;;;;5017092;28;20672;-88
2023/04/20 03:02:48;;;;;;;19.20;17.47;;;6.60;74.40;;;;;;5017016;28;20185;-88
2023/04/20 03:05:14;;;;;;;20.63;19.13;;;6.60;74.60;;;;;;5017181;28;20210;-88
2023/04/20 03:07:39;;;;;;;19.20;17.70;;;6.60;75.10;;;;;;5016860;28;20724;-88
2023/04/20 03:10:06;;;;;;;20.50;19.30;;;6.60;74.90;;;;;;5017143;28;20255;-88
2023/04/20 03:12:31;;;;;;;12.47;8.90;;;6.50;74.60;;;;;;5016680;28;20172;-88
2023/04/20 03:14:57;;;;;;;14.57;10.90;;;6.50;75.70;;;;;;5016741;28;20200;-87
2023/04/20 03:17:22;;;;;;;19.73;18.27;;;6.50;75.70;;;;;;5016637;28;20196;-88
2023/04/20 03:19:48;;;;;;;20.73;18.93;;;6.50;76.10;;;;;;5016640;28;20176;-88
2023/04/20 03:22:14;;;;;;;21.27;19.67;;;6.40;76.70;;;;;;5016657;28;20177;-88
2023/04/20 03:24:39;;;;;;;21.77;20.23;;;6.40;76.50;;;;;;5016379;28;20204;-87
2023/04/20 03:27:05;;;;;;;9.77;8.77;;;6.40;77.00;;;;;;5016806;28;20203;-88
2023/04/20 03:29:30;;;;;;;9.23;8.50;;;6.30;77.30;;;;;;5016790;28;20666;-87
2023/04/20 03:31:56;;;;;;;9.87;8.97;;;6.30;76.90;;;;;;5017514;28;20619;-85
2023/04/20 03:34:21;;;;;;;15.93;9.33;;;6.30;77.20;;;;;;5034241;28;20643;-88
2023/04/20 03:36:47;;;;;;;9.90;8.53;;;6.30;77.50;;;;;;5016992;28;20230;-88
2023/04/20 03:39:12;;;;;;;16.40;8.27;;;6.30;77.30;;;;;;5016638;28;20176;-88
2023/04/20 03:41:38;;;;;;;8.50;7.70;;;6.40;76.70;;;;;;5016261;28;20253;-87
2023/04/20 03:44:03;;;;;;;9.30;8.50;;;6.40;76.90;;;;;;5016192;28;20203;-88
2023/04/20 03:46:29;;;;;;;9.50;8.70;;;6.40;76.60;;;;;;5016108;28;20196;-88
2023/04/20 03:48:54;;;;;;;9.27;8.37;;;6.40;76.30;;;;;;5015809;28;20169;-88
2023/04/20 03:51:20;;;;;;;8.20;7.60;;;6.50;76.70;;;;;;5015915;28;20168;-88
2023/04/20 03:53:45;;;;;;;11.70;9.27;;;6.40;77.40;;;;;;5016640;28;20270;-90
2023/04/20 03:56:11;;;;;;;8.97;8.07;;;6.30;78.40;;;;;;5033512;28;20203;-89
2023/04/20 03:58:37;;;;;;;8.80;7.80;;;6.30;79.20;;;;;;5033909;28;20654;-88
2023/04/20 04:01:06;;;;;;;9.80;7.90;;;6.20;80.50;;;;;;5034121;28;20173;-88
2023/04/20 04:03:31;;;;;;;9.53;8.10;;;6.20;81.20;;;;;;5015973;28;20191;-88
2023/04/20 04:05:57;;;;;;;10.90;7.93;;;6.10;81.80;;;;;;5015725;28;20192;-88
2023/04/20 04:08:22;;;;;;;8.00;7.40;;;6.00;82.50;;;;;;5016222;28;20627;-88
2023/04/20 04:10:48;;;;;;;9.30;7.77;;;6.00;82.90;;;;;;5015779;28;20186;-88
2023/04/20 04:13:13;;;;;;;9.80;8.90;;;6.00;82.70;;;;;;5015659;28;20645;-88
2023/04/20 04:15:39;;;;;;;14.57;8.53;;;6.00;82.90;;;;;;5015561;28;20176;-88
2023/04/20 04:18:05;;;;;;;11.70;8.00;;;5.90;83.30;;;;;;5015831;28;20642;-88
2023/04/20 04:20:30;;;;;;;9.60;7.57;;;5.90;83.90;;;;;;5015734;28;20179;-88
2023/04/20 04:22:57;;;;;;;16.97;8.07;;;5.80;84.10;;;;;;5015977;28;20325;-88
2023/04/20 04:25:22;;;;;;;12.03;7.97;;;5.80;84.20;;;;;;5015828;28;20211;-88
2023/04/20 04:27:48;;;;;;;13.03;8.53;;;5.80;84.30;;;;;;5033122;28;20195;-89
2023/04/20 04:30:14;;;;;;;10.40;8.43;;;5.80;84.70;;;;;;5015563;28;20264;-88
2023/04/20 04:32:40;;;;;;;8.93;7.33;;;5.80;84.90;;;;;;5033145;28;20639;-89
2023/04/20 04:35:06;;;;;;;9.17;7.07;;;5.80;85.10;;;;;;5033108;28;20187;-88
2023/04/20 04:37:31;;;;;;;11.50;8.00;;;5.80;85.30;;;;;;5015300;28;20215;-88
2023/04/20 04:39:57;;;;;;;10.53;7.20;;;5.80;85.30;;;;;;5015532;28;20179;-88
2023/04/20 04:42:23;;;;;;;11.00;8.07;;;5.80;85.80;;;;;;5015518;28;20234;-88
2023/04/20 04:44:51;;;;;;;15.37;13.40;;;5.80;85.90;;;;;;5015283;28;20200;-88
2023/04/20 04:47:18;;;;;;;14.03;12.60;;;5.80;85.90;;;;;;5015318;28;20229;-88
2023/04/20 04:49:44;;;;;;;16.97;12.87;;;5.80;86.10;;;;;;5015368;28;20178;-88
2023/04/20 04:52:10;;;;;;;13.73;12.37;;;5.80;86.10;;;;;;5015360;28;20266;-88
2023/04/20 04:54:35;;;;;;;14.10;12.67;;;5.80;86.10;;;;;;5015311;28;20186;-88
2023/04/20 04:57:01;;;;;;;13.43;12.10;;;5.80;86.70;;;;;;5032867;28;20195;-89
2023/04/20 04:59:27;;;;;;;12.40;11.13;;;5.80;86.90;;;;;;5015329;28;20661;-88
2023/04/20 05:01:52;;;;;;;8.77;6.70;;;5.80;87.00;;;;;;5017889;28;20194;-88
2023/04/20 05:04:18;;;;;;;10.40;8.60;;;5.80;87.10;;;;;;5019129;28;20204;-88
2023/04/20 05:06:44;;;;;;;14.33;6.73;;;5.80;87.20;;;;;;5019146;28;20697;-89
2023/04/20 05:09:10;;;;;;;16.67;13.40;;;5.80;87.20;;;;;;5019852;28;20172;-89
2023/04/20 05:11:35;;;;;;;14.73;13.30;;;5.80;87.30;;;;;;5036998;28;20171;-88
2023/04/20 05:14:02;;;;;;;15.63;12.60;;;5.80;87.30;;;;;;5019304;28;20180;-88
2023/04/20 05:16:28;;;;;;;16.20;11.90;;;5.80;87.30;;;;;;5019137;28;20196;-89
2023/04/20 05:18:53;;;;;;;11.77;6.90;;;5.80;87.20;;;;;;5036906;28;20174;-89
2023/04/20 05:21:19;;;;;;;15.67;7.80;;;5.80;87.30;;;;;;5018791;28;20646;-88
2023/04/20 05:23:44;;;;;;;12.57;7.80;;;5.80;87.30;;;;;;5036442;28;20199;-88
2023/04/20 05:26:10;;;;;;;11.87;7.07;;;5.80;87.50;;;;;;5018735;28;20187;-89
2023/04/20 05:28:35;;;;;;;12.33;8.40;;;5.80;87.60;;;;;;5018893;28;20179;-88
2023/04/20 05:31:01;;;;;;;21.87;7.57;;;5.80;87.60;;;;;;5036612;28;20172;-89
2023/04/20 05:33:26;;;;;;;13.60;6.93;;;5.80;87.70;;;;;;5018626;28;20179;-88
2023/04/20 05:35:58;;;;;;;16.60;7.67;;;5.80;87.70;;;;;;5036218;28;20349;-88
2023/04/20 05:38:24;;;;;;;11.20;6.93;;;5.80;88.00;;;;;;5019213;28;20167;-88
2023/04/20 05:40:50;;;;;;;10.93;6.40;;;5.80;87.90;;;;;;5018547;28;20176;-89
2023/04/20 05:43:17;;;;;;;11.83;7.83;;;5.80;88.10;;;;;;5036151;28;20178;-89
2023/04/20 05:45:47;;;;;;;12.47;7.67;;;5.90;87.90;;;;;;5018344;28;20210;-88
2023/04/20 05:48:12;;;;;;;15.90;8.37;;;5.90;88.20;;;;;;5018358;28;20195;-88
2023/04/20 05:50:38;;;;;;;15.50;8.20;;;5.90;88.30;;;;;;5035967;28;20638;-88
2023/04/20 05:53:03;;;;;;;11.87;7.40;;;5.80;88.30;;;;;;5019387;28;20559;-89
2023/04/20 05:55:29;;;;;;;12.63;7.90;;;5.90;88.40;;;;;;5018383;28;20192;-88
2023/04/20 05:57:54;;;;;;;10.67;5.80;;;5.90;88.50;;;;;;5019118;28;20290;-88
2023/04/20 06:00:20;;;;;;;10.23;6.87;;;5.80;88.70;;;;;;5019017;28;20184;-89
2023/04/20 06:02:46;;;;;;;14.30;6.77;;;5.80;88.70;;;;;;5018063;28;20188;-88
2023/04/20 06:05:11;;;;;;;14.27;7.53;;;5.90;88.90;;;;;;5035638;28;20269;-89
2023/04/20 06:07:37;;;;;;;15.23;7.70;;;5.80;89.00;;;;;;5018316;28;20197;-89
2023/04/20 06:10:04;;;;;;;24.10;9.20;;;5.90;89.20;;;;;;5018848;28;20232;-88
2023/04/20 06:12:30;;;;;;;13.97;7.47;;;5.90;89.40;;;;;;5018114;28;20197;-89
2023/04/20 06:14:59;;;;;;;14.03;8.27;;;5.90;89.60;;;;;;5035784;28;20706;-88
2023/04/20 06:17:24;;;;;;;10.93;6.70;;;5.90;89.70;;;;;;5035665;28;20188;-89
2023/04/20 06:19:50;;;;;;;16.53;7.90;;;5.90;89.70;;;;;;5017974;28;20594;-89
2023/04/20 06:22:16;;;;;;;13.80;7.47;;;5.90;89.80;;;;;;5017816;28;20802;-89
2023/04/20 06:24:42;;;;;;;17.30;7.93;;;5.90;89.80;;;;;;5018384;28;20227;-88
2023/04/20 06:27:08;;;;;;;20.57;7.10;;;5.90;89.80;;;;;;5035261;28;20228;-89
2023/04/20 06:29:34;;;;;;;13.93;7.73;;;5.90;89.90;;;;;;5017564;28;20179;-89
2023/04/20 06:31:59;;;;;;;19.43;12.17;;;5.90;90.00;;;;;;5035232;28;20164;-89
2023/04/20 06:34:25;;;;;;;15.50;10.00;;;5.90;90.00;;;;;;5035217;28;20199;-89
2023/04/20 06:36:50;;;;;;;12.07;10.70;;;5.90;90.20;;;;;;5035095;28;20239;-89
2023/04/20 06:39:16;;;;;;;12.97;11.20;;;5.90;90.30;;;;;;5035199;28;20242;-89
2023/04/20 06:41:42;;;;;;;19.70;11.60;;;5.90;90.50;;;;;;5035096;28;20183;-89
2023/04/20 06:44:08;;;;;;;14.30;10.43;;;5.90;90.60;;;;;;5017323;28;20207;-89
2023/04/20 06:46:33;;;;;;;14.93;8.50;;;5.90;90.70;;;;;;5034864;28;20195;-89
2023/04/20 06:48:59;;;;;;;16.17;9.03;;;5.90;90.90;;;;;;5035108;28;20699;-85
2023/04/20 06:51:26;;;;;;;15.67;8.30;;;5.90;90.90;;;;;;5017189;28;20187;-87
2023/04/20 06:53:51;;;;;;;16.60;10.90;;;5.90;91.00;;;;;;5017234;28;20184;-87
2023/04/20 06:56:17;;;;;;;21.50;11.70;;;5.90;91.10;;;;;;5017049;28;20571;-87
2023/04/20 06:58:43;;;;;;;16.80;10.87;;;5.90;91.20;;;;;;5034739;28;20182;-87
2023/04/20 07:01:08;;;;;;;21.20;11.50;;;6.00;91.40;;;;;;5034832;28;20187;-89
2023/04/20 07:03:34;;;;;;;16.43;7.53;;;6.00;91.40;;;;;;5034705;28;20198;-88
2023/04/20 07:05:59;;;;;;;14.73;8.20;;;6.00;91.50;;;;;;5035005;28;20203;-89
2023/04/20 07:08:25;;;;;;;17.13;8.10;;;6.00;91.60;;;;;;5017074;28;20177;-89
2023/04/20 07:10:51;;;;;;;17.00;8.60;;;6.10;91.70;;;;;;5034840;28;20179;-90
2023/04/20 07:13:16;;;;;;;17.30;8.53;;;6.20;91.80;;;;;;5016945;28;20230;-89
2023/04/20 07:15:44;;;;;;;14.37;8.77;;;6.10;91.80;;;;;;5034534;28;20684;-88
2023/04/20 07:18:10;;;;;;;12.80;7.50;;;6.00;91.80;;;;;;5016917;28;20709;-89
2023/04/20 07:20:35;;;;;;;28.90;10.40;;;6.10;91.90;;;;;;5034428;28;20271;-90
2023/04/20 07:23:01;;;;;;;13.20;8.07;;;6.00;92.00;;;;;;5034409;28;20187;-86
2023/04/20 07:25:26;;;;;;;13.73;6.57;;;6.00;91.90;;;;;;5015637;28;20211;-88
2023/04/20 07:27:52;;;;;;;13.60;7.30;;;6.00;91.80;;;;;;5034295;28;20185;-89
2023/04/20 07:30:18;;;;;;;14.60;8.03;;;6.00;91.80;;;;;;5034141;28;20280;-89
2023/04/20 07:32:43;;;;;;;11.93;8.13;;;6.10;91.90;;;;;;5016879;28;20176;-89
2023/04/20 07:35:09;;;;;;;17.03;8.03;;;6.10;91.90;;;;;;5033997;28;20184;-89
2023/04/20 07:37:35;;;;;;;13.17;8.10;;;6.10;91.90;;;;;;5016443;28;20216;-89
2023/04/20 07:40:03;;;;;;;14.47;9.80;;;6.10;91.90;;;;;;5034747;28;20180;-92
2023/04/20 07:42:28;;;;;;;14.80;9.43;;;6.20;91.90;;;;;;5018505;28;20201;-86
2023/04/20 07:44:54;;;;;;;14.73;8.33;;;6.20;92.00;;;;;;5033803;28;20576;-89
2023/04/20 07:47:19;;;;;;;21.23;8.57;;;6.20;92.00;;;;;;5017273;28;20195;-89
2023/04/20 07:49:45;;;;;;;23.97;10.23;;;6.20;92.00;;;;;;5034071;28;20549;-90
2023/04/20 07:52:11;;;;;;;20.10;10.67;;;6.20;92.10;;;;;;5016223;28;20180;-87
2023/04/20 07:54:37;;;;;;;23.73;10.73;;;6.20;92.00;;;;;;5016440;28;20187;-87
2023/04/20 07:57:02;;;;;;;18.47;8.53;;;6.20;92.10;;;;;;5016202;28;20211;-87
2023/04/20 07:59:28;;;;;;;15.37;9.40;;;6.30;92.10;;;;;;5016109;28;20680;-89
2023/04/20 08:02:01;;;;;;;13.83;9.53;;;6.20;92.10;;;;;;5015921;28;20191;-88
2023/04/20 08:04:26;;;;;;;16.27;9.33;;;6.30;92.10;;;;;;5015791;28;20208;-88
2023/04/20 08:06:52;;;;;;;22.93;9.97;;;6.30;92.10;;;;;;5016882;28;20560;-88
2023/04/20 08:09:18;;;;;;;16.53;9.30;;;6.30;92.10;;;;;;5016034;28;20181;-88
2023/04/20 08:11:45;;;;;;;17.80;13.10;;;6.30;92.10;;;;;;5015857;28;20176;-89
2023/04/20 08:14:11;;;;;;;17.23;12.07;;;6.30;92.10;;;;;;5033350;28;20169;-89
2023/04/20 08:16:36;;;;;;;25.77;14.20;;;6.30;92.10;;;;;;5033335;28;20200;-90
2023/04/20 08:19:08;;;;;;;17.13;12.47;;;6.30;92.20;;;;;;5033421;28;20179;-90
2023/04/20 08:21:37;;;;;;;16.13;13.23;;;6.30;92.10;;;;;;5016664;28;20566;-89
2023/04/20 08:24:03;;;;;;;20.90;12.13;;;6.30;92.10;;;;;;5033233;28;20210;-90
2023/04/20 08:26:30;;;;;;;20.53;11.07;;;6.40;92.20;;;;;;5015748;28;20196;-88
2023/04/20 08:28:55;;;;;;;14.20;9.17;;;6.30;92.10;;;;;;5033733;28;20234;-89
2023/04/20 08:31:21;;;;;;;18.83;14.37;;;6.30;92.20;;;;;;5033376;28;20173;-87
2023/04/20 08:33:46;;;;;;;23.07;14.70;;;6.40;92.20;;;;;;5033898;28;20580;-87
2023/04/20 08:36:12;;;;;;;22.70;12.47;;;6.40;92.30;;;;;;5033270;28;20208;-90
2023/04/20 08:38:37;;;;;;;25.27;12.60;;;6.40;92.40;;;;;;5033790;28;20160;-88
2023/04/20 08:41:03;;;;;;;16.67;11.23;;;6.40;92.20;;;;;;5015519;28;20173;-87
2023/04/20 08:43:28;;;;;;;15.00;8.43;;;6.40;92.20;;;;;;5015512;28;20184;-89
2023/04/20 08:45:58;;;;;;;12.17;8.90;;;6.30;92.20;;;;;;5015892;28;20220;-86
2023/04/20 08:48:25;;;;;;;15.37;9.83;;;6.30;92.20;;;;;;5033657;28;20165;-85
2023/04/20 08:50:51;;;;;;;6.30;5.67;;;6.40;92.30;;;;;;5015711;28;20177;-86
2023/04/20 08:53:17;;;;;;;22.40;11.23;;;6.30;92.30;;;;;;5015849;28;20672;-85
2023/04/20 08:55:42;;;;;;;20.80;11.17;;;6.30;92.40;;;;;;5015543;28;20202;-85
2023/04/20 08:58:08;;;;;;;18.10;12.83;;;6.30;92.40;;;;;;5016463;28;20184;-85
2023/04/20 09:00:34;;;;;;;15.90;10.33;;;6.30;92.50;;;;;;5033187;28;20315;-85
2023/04/20 09:03:00;;;;;;;22.10;12.30;;;6.30;92.70;;;;;;5015584;28;20180;-85
2023/04/20 09:05:30;;;;;;;15.00;9.80;;;6.30;92.70;;;;;;5015575;28;20204;-85
2023/04/20 09:08:00;;;;;;;21.67;11.80;;;6.30;92.80;;;;;;5015801;28;20662;-85
2023/04/20 09:10:37;;;;;;;20.60;11.60;;;6.30;92.80;;;;;;5033596;28;20236;-85
2023/04/20 09:13:02;;;;;;;17.03;12.13;;;6.40;92.90;;;;;;5015902;28;20591;-85
2023/04/20 09:15:30;;;;;;;17.13;10.40;;;6.40;92.90;;;;;;5033748;28;20177;-85
2023/04/20 09:17:56;;;;;;;19.93;11.17;;;6.60;93.00;;;;;;5033433;28;20181;-85
2023/04/20 09:20:34;;;;;;;15.43;9.60;;;6.70;93.10;;;;;;5015869;28;20188;-85
2023/04/20 09:23:12;;;;;;;21.07;11.07;;;6.60;93.00;;;;;;5016157;28;20263;-85
2023/04/20 09:25:39;;;;;;;9.40;8.50;;;6.70;93.10;;;;;;5016095;28;20670;-85
2023/04/20 09:28:05;;;;;;;20.40;11.93;;;6.70;93.00;;;;;;5015956;28;20177;-85
2023/04/20 09:30:48;;;;;;;16.30;11.60;;;6.80;93.10;;;;;;5033540;28;20238;-85
2023/04/20 09:33:14;;;;;;;17.43;12.77;;;6.80;93.10;;;;;;5033679;28;20180;-85
2023/04/20 09:35:41;;;;;;;23.77;13.40;;;6.80;93.10;;;;;;5015571;28;20184;-85
2023/04/20 09:38:07;;;;;;;14.63;9.67;;;7.00;93.30;;;;;;5015871;28;20263;-85
2023/04/20 09:40:34;;;;;;;21.20;11.63;;;7.00;93.00;;;;;;5016250;28;20172;-85
2023/04/20 09:43:17;;;;;;;20.23;12.43;;;7.30;93.10;;;;;;5016044;28;20173;-86
2023/04/20 09:45:42;;;;;;;14.23;9.03;;;7.50;93.00;;;;;;5015835;28;20205;-86
2023/04/20 09:48:08;;;;;;;21.87;12.33;;;7.50;92.70;;;;;;5017392;28;20524;-86
2023/04/20 09:50:36;;;;;;;27.90;17.70;;;7.50;92.50;;;;;;5020361;28;20183;-85
2023/04/20 09:53:03;;;;;;;17.83;15.77;;;7.60;92.50;;;;;;5037431;28;20219;-86
2023/04/20 09:55:30;;;;;;;20.20;16.37;;;7.50;92.20;;;;;;5019721;28;20176;-85
2023/04/20 09:57:55;;;;;;;25.13;17.30;;;7.60;92.20;;;;;;5037760;28;20172;-86
2023/04/20 10:00:22;;;;;;;25.60;17.73;;;7.50;91.80;;;;;;5019974;28;20187;-86
2023/04/20 10:02:47;;;;;;;15.20;11.20;;;7.60;92.00;;;;;;5020027;28;20654;-85
2023/04/20 10:05:13;;;;;;;14.97;11.33;;;7.60;91.70;;;;;;5019918;28;20216;-86
2023/04/20 10:07:39;;;;;;;26.07;19.33;;;7.60;91.70;;;;;;5020049;28;20654;-86
2023/04/20 10:10:12;;;;;;;20.30;17.90;;;7.50;91.50;;;;;;5037647;28;20541;-86
2023/04/20 10:12:48;;;;;;;24.03;16.70;;;7.70;91.80;;;;;;5037489;28;20180;-86
2023/04/20 10:15:14;;;;;;;17.10;15.53;;;7.70;91.50;;;;;;5019784;28;20172;-86
2023/04/20 10:17:40;;;;;;;17.70;12.80;;;7.60;91.50;;;;;;5018472;28;20731;-87
2023/04/20 10:20:21;;;;;;;17.27;11.87;;;7.60;91.50;;;;;;5018048;28;20173;-88
2023/04/20 10:22:46;;;;;;;14.77;11.83;;;7.50;91.30;;;;;;5018414;28;20187;-89
2023/04/20 10:25:21;;;;;;;17.87;11.77;;;7.60;91.40;;;;;;5017673;28;20201;-87
2023/04/20 10:27:55;;;;;;;15.47;10.03;;;7.70;91.50;;;;;;5017740;28;20677;-86
2023/04/20 10:30:22;;;;;;;17.13;11.63;;;7.80;91.70;;;;;;5017824;28;20642;-87
2023/04/20 10:32:47;;;;;;;24.97;14.13;;;7.80;91.40;;;;;;5035308;28;20670;-88
2023/04/20 10:35:14;;;;;;;19.73;11.70;;;8.10;91.80;;;;;;5017643;28;20192;-88
2023/04/20 10:37:50;;;;;;;18.03;12.47;;;8.30;91.60;;;;;;5035897;28;20232;-87
2023/04/20 10:40:23;;;;;;;15.93;11.80;;;8.60;91.40;;;;;;5017462;28;20181;-87
2023/04/20 10:42:48;;;;;;;25.40;13.30;;;8.50;90.70;;;;;;5017538;28;20176;-87
2023/04/20 10:45:14;;;;;;;23.87;12.80;;;8.50;90.80;;;;;;5017453;28;20200;-88
2023/04/20 10:47:40;;;;;;;20.40;13.03;;;8.50;90.70;;;;;;5017592;28;20196;-86
2023/04/20 10:50:06;;;;;;;23.03;13.20;;;8.30;90.00;;;;;;5018191;28;20199;-86
2023/04/20 10:52:34;;;;;;;21.80;12.60;;;8.40;90.20;;;;;;5036877;28;20160;-86
2023/04/20 10:55:00;;;;;;;19.77;11.97;;;8.30;89.80;;;;;;5020046;28;20595;-85
2023/04/20 10:57:25;;;;;;;17.30;12.07;;;8.20;89.70;;;;;;5037651;28;20247;-86
2023/04/20 10:59:51;;;;;;;21.20;12.50;;;8.20;89.60;;;;;;5018628;28;20655;-86
2023/04/20 11:02:16;;;;;;;18.00;13.07;;;8.10;89.50;;;;;;5017729;28;20211;-86
2023/04/20 11:04:42;;;;;;;13.97;12.03;;;8.10;89.60;;;;;;5017769;28;20200;-86
2023/04/20 11:07:09;;;;;;;20.97;11.63;;;8.20;90.00;;;;;;5017419;28;20674;-86
2023/04/20 11:09:37;;;;;;;16.63;13.07;;;8.20;89.70;;;;;;5017609;28;20556;-86
2023/04/20 11:12:07;;;;;;;14.60;10.97;;;8.30;90.20;;;;;;5035345;28;20224;-86
2023/04/20 11:14:37;;;;;;;22.17;11.37;;;8.30;89.70;;;;;;5017262;28;20594;-86
2023/04/20 11:17:03;;;;;;;18.70;12.40;;;8.30;89.60;;;;;;5035238;28;20667;-86
2023/04/20 11:19:35;;;;;;;22.67;12.53;;;8.30;89.60;;;;;;5017609;28;20172;-86
2023/04/20 11:22:03;;;;;;;19.43;11.63;;;8.50;90.00;;;;;;5017538;28;20173;-86
2023/04/20 11:24:30;;;;;;;22.10;12.63;;;8.30;89.20;;;;;;5035557;28;20204;-86
2023/04/20 11:26:56;;;;;;;26.40;17.07;;;8.30;89.30;;;;;;5035298;28;20196;-86
2023/04/20 11:29:54;;;;;;;20.47;17.93;;;8.30;89.10;;;;;;5017331;28;20172;-86
2023/04/20 11:32:20;;;;;;;21.83;17.90;;;8.40;89.50;;;;;;5034592;28;20268;-87
2023/04/20 11:34:45;;;;;;;20.33;16.43;;;8.50;89.40;;;;;;5017553;28;20643;-87
2023/04/20 11:37:14;;;;;;;18.37;14.33;;;8.40;89.10;;;;;;5016696;28;20216;-87
2023/04/20 11:39:40;;;;;;;18.53;12.47;;;8.50;89.20;;;;;;5034385;28;20210;-88
2023/04/20 11:42:06;;;;;;;17.73;11.43;;;8.50;89.10;;;;;;5016794;28;20260;-87
2023/04/20 11:44:32;;;;;;;25.87;17.90;;;8.50;89.00;;;;;;5035259;28;20331;-86
2023/04/20 11:46:58;;;;;;;22.47;18.50;;;8.50;88.70;;;;;;5018341;28;20197;-86
2023/04/20 11:49:26;;;;;;;21.43;17.57;;;8.70;88.90;;;;;;5018196;28;20173;-87
2023/04/20 11:51:52;;;;;;;19.87;17.47;;;8.60;88.60;;;;;;5017974;28;20179;-86
2023/04/20 11:54:18;;;;;;;14.70;13.13;;;8.70;88.50;;;;;;5037130;28;20177;-85
2023/04/20 11:56:44;;;;;;;20.30;13.43;;;8.80;88.60;;;;;;5038553;28;20607;-86
2023/04/20 11:59:10;;;;;;;19.93;13.73;;;8.70;88.10;;;;;;5017638;28;20200;-87
2023/04/20 12:01:37;;;;;;;26.43;15.53;;;8.70;88.10;;;;;;5034348;28;20172;-87
2023/04/20 12:04:03;;;;;;;21.20;14.27;;;8.70;88.40;;;;;;5015998;28;20632;-88
2023/04/20 12:06:30;;;;;;;20.03;14.27;;;8.90;88.60;;;;;;5015965;28;20188;-87
2023/04/20 12:08:56;;;;;;;25.37;13.70;;;8.80;88.30;;;;;;5015868;28;20650;-88
2023/04/20 12:11:22;;;;;;;21.17;14.00;;;8.80;88.10;;;;;;5015388;28;20184;-87
2023/04/20 12:13:47;;;;;;;22.27;13.87;;;8.90;88.20;;;;;;5015832;28;20259;-87
2023/04/20 12:16:13;;;;;;;28.03;14.73;;;8.90;88.30;;;;;;5015828;28;20323;-87
2023/04/20 12:18:38;;;;;;;23.53;15.63;;;8.80;88.30;;;;;;5033688;28;20658;-87
2023/04/20 12:21:04;;;;;;;21.83;14.50;;;8.90;88.60;;;;;;5015819;28;20180;-87
2023/04/20 12:23:30;;;;;;;23.80;15.80;;;8.90;88.80;;;;;;5016714;28;20175;-86
2023/04/20 12:25:56;;;;;;;20.83;16.27;;;8.90;88.70;;;;;;5015843;28;20212;-87
2023/04/20 12:28:21;;;;;;;20.00;14.90;;;8.90;89.00;;;;;;5015679;28;20238;-88
2023/04/20 12:30:47;;;;;;;21.30;15.37;;;8.80;88.70;;;;;;5015619;28;20647;-88
2023/04/20 12:33:12;;;;;;;19.40;13.80;;;8.80;88.70;;;;;;5033599;28;20244;-88
2023/04/20 12:35:38;;;;;;;20.50;14.20;;;8.80;89.00;;;;;;5015343;28;20522;-89